Erhard, Minnesota
Current Conditions -  °F | °C
As of 7:34 PM on Sunday 23 Nov 2014 (Local Time) from KFFM Reporting Station
Overcast Overcast  
Wind Chill: 16°   Ceiling: 3000
Heat Index: 28°   Visibility: 10mi
Dew Point: 21°   Wind: 17mph
Humidity: 74%   Direction: 310°NW
Pressure: 29.53"   Gusts: 24mph
Location:  46.49°N, 96.1°W
Report Text: KFFM 240134Z AUTO 31015G21KT 10SM SCT025 BKN030 OVC039 M02/M06 A2953 RMK AO2
Loading
Personal Weather Stations






























Interactive Weather Map New forecast layout! Learn more

10-Day Weather Forecast

Advertisements
Track Severe Weather on mobile